This is the latest recevied weather packets stored in our database for station/object KC5TIL. If no packets are shown the sender has not sent any weather packets the latest 1 day(s).
| Time | Temp. | Humidity | Pressure | Rain* | Wind** | Luminosity | Snow |
|---|---|---|---|---|---|---|---|
| 1778025522 | 27.78° C | 58% | 1005.9 hPa | 0 mm | 1.34 m/s, 252° | 64 W/m² | - |
| 1778025220 | 27.78° C | 57% | 1005.9 hPa | 0 mm | 1.34 m/s, 252° | 81 W/m² | - |
| 1778024916 | 27.78° C | 57% | 1005.6 hPa | 0 mm | 1.34 m/s, 357° | 76 W/m² | - |
| 1778024615 | 28.33° C | 57% | 1005.6 hPa | 0 mm | 3.13 m/s, 24° | 65 W/m² | - |
| 1778024316 | 28.33° C | 57% | 1005.5 hPa | 0 mm | 1.34 m/s, 11° | 75 W/m² | - |
| 1778024009 | 28.89° C | 57% | 1005.3 hPa | 0 mm | 1.34 m/s, 7° | 89 W/m² | - |
| 1778023706 | 29.44° C | 56% | 1005.4 hPa | 0 mm | 2.68 m/s, 295° | 95 W/m² | - |
| 1778023404 | 30.56° C | 52% | 1005.2 hPa | 0 mm | 1.34 m/s, 13° | 103 W/m² | - |
| 1778023100 | 30.56° C | 50% | 1005.3 hPa | 0 mm | 2.24 m/s, 277° | 84 W/m² | - |
| 1778022798 | 30.56° C | 49% | 1005 hPa | 0 mm | 1.34 m/s, 273° | 85 W/m² | - |
| 1778022496 | 31.11° C | 50% | 1005 hPa | 0 mm | 0.45 m/s, 123° | 158 W/m² | - |
| 1778022193 | 31.11° C | 49% | 1004.8 hPa | 0 mm | 1.34 m/s, 273° | 195 W/m² | - |
| 1778021889 | 31.11° C | 48% | 1004.8 hPa | 0 mm | 2.24 m/s, 353° | 147 W/m² | - |
| 1778021587 | 31.11° C | 47% | 1004.7 hPa | 0 mm | 0.89 m/s, 264° | 145 W/m² | - |
| 1778021282 | 31.67° C | 47% | 1004.6 hPa | 0 mm | 1.34 m/s, 18° | 199 W/m² | - |
| 1778020980 | 33.33° C | 46% | 1004.3 hPa | 0 mm | 1.79 m/s, 301° | 158 W/m² | - |
| 1778020677 | 33.89° C | 48% | 1004.4 hPa | 0 mm | 0 m/s | 179 W/m² | - |
| 1778020374 | 34.44° C | 45% | 1004.4 hPa | 0 mm | 0 m/s | 178 W/m² | - |
| 1778020069 | 34.44° C | 43% | 1004.5 hPa | 0 mm | 0 m/s | 296 W/m² | - |
| 1778019766 | 35° C | 43% | 1004.3 hPa | 0 mm | 0.45 m/s, 168° | 354 W/m² | - |
| 1778019463 | 35° C | 44% | 1004.3 hPa | 0 mm | 0.45 m/s, 179° | 465 W/m² | - |
| 1778019160 | 35° C | 44% | 1004.3 hPa | 0 mm | 0.45 m/s, 207° | 505 W/m² | - |
| 1778018856 | 34.44° C | 44% | 1004.1 hPa | 0 mm | 0.45 m/s, 177° | 485 W/m² | - |
| 1778018554 | 33.89° C | 45% | 1004.4 hPa | 0 mm | 0.45 m/s, 188° | 475 W/m² | - |
| 1778018252 | 34.44° C | 44% | 1004.1 hPa | 0 mm | 0 m/s | 215 W/m² | - |
* Rain latest hour (hover to see other rain measurements)
** Current wind speed in m/s (hover to see current wind gust speed)